createdAt,value
2019-05-02T00:02:36.753Z,85.10
2019-05-02T00:05:27.399Z,84.70
2019-05-02T00:08:13.138Z,85.10
2019-05-02T00:11:00.308Z,84.90
2019-05-02T00:13:48.039Z,85.00
2019-05-02T00:16:35.608Z,84.90
2019-05-02T00:19:22.787Z,85.60
2019-05-02T00:22:12.299Z,85.30
2019-05-02T00:24:59.479Z,85.00
2019-05-02T00:27:46.692Z,85.10
2019-05-02T00:30:34.688Z,86.20
2019-05-02T00:33:22.964Z,84.90
2019-05-02T00:36:10.363Z,85.30
2019-05-02T00:38:57.533Z,85.70
2019-05-02T00:41:44.765Z,85.80
2019-05-02T00:44:32.364Z,85.30
2019-05-02T00:47:33.437Z,85.20
2019-05-02T00:50:21.660Z,85.40
2019-05-02T00:53:12.038Z,85.00
2019-05-02T00:55:58.025Z,85.00
2019-05-02T00:58:45.520Z,84.70
2019-05-02T01:01:46.684Z,84.20
2019-05-02T01:04:35.756Z,84.20
2019-05-02T01:07:25.566Z,84.20
2019-05-02T01:10:12.325Z,84.20
2019-05-02T01:12:59.529Z,84.40
2019-05-02T01:15:46.723Z,84.20
2019-05-02T01:18:37.108Z,84.50
2019-05-02T01:21:23.367Z,84.60
2019-05-02T01:24:10.609Z,84.90
2019-05-02T01:27:06.530Z,84.90
2019-05-02T01:30:01.641Z,84.50
2019-05-02T01:32:49.053Z,84.60
2019-05-02T01:35:40.959Z,85.30
2019-05-02T01:38:33.801Z,85.20
2019-05-02T01:41:24.122Z,85.00
2019-05-02T01:44:09.536Z,85.50
2019-05-02T01:46:58.895Z,86.40
2019-05-02T01:49:45.941Z,85.80
2019-05-02T01:52:33.107Z,85.80
2019-05-02T01:55:21.123Z,85.60
2019-05-02T01:58:09.869Z,85.50
2019-05-02T02:00:57.142Z,85.70
2019-05-02T02:03:45.585Z,86.30
2019-05-02T02:06:32.163Z,86.00
2019-05-02T02:09:19.713Z,86.40
2019-05-02T02:12:09.775Z,86.40
2019-05-02T02:14:55.665Z,86.40
2019-05-02T02:17:46.830Z,86.70
2019-05-02T02:20:33.506Z,86.50
2019-05-02T02:23:28.468Z,86.90
2019-05-02T02:26:25.730Z,86.60
2019-05-02T02:29:13.180Z,86.50
2019-05-02T02:32:00.770Z,86.80
2019-05-02T02:34:48.169Z,87.50
2019-05-02T02:37:35.695Z,87.30
2019-05-02T02:40:32.580Z,87.00
2019-05-02T02:43:32.184Z,86.90
2019-05-02T02:46:04.106Z,86.90
2019-05-02T02:48:51.290Z,86.80
2019-05-02T02:51:37.352Z,87.20
2019-05-02T02:54:24.670Z,87.30
2019-05-02T02:57:20.551Z,86.90
2019-05-02T03:00:07.885Z,87.00
2019-05-02T03:02:50.109Z,87.80
2019-05-02T03:05:37.975Z,87.60
2019-05-02T03:08:25.979Z,87.80
2019-05-02T03:11:22.344Z,87.80
2019-05-02T03:14:07.481Z,87.50
2019-05-02T03:16:53.837Z,87.40
2019-05-02T03:19:41.637Z,87.90
2019-05-02T03:22:34.861Z,87.80
2019-05-02T03:25:25.003Z,87.50
2019-05-02T03:28:17.333Z,87.70
2019-05-02T03:30:56.101Z,87.70
2019-05-02T03:33:54.417Z,87.50
2019-05-02T03:36:36.059Z,87.80
2019-05-02T03:39:22.439Z,87.90
2019-05-02T03:42:09.970Z,87.50
2019-05-02T03:45:03.816Z,87.90
2019-05-02T03:47:46.573Z,88.10
2019-05-02T03:50:35.376Z,88.10
2019-05-02T03:53:25.238Z,88.70
2019-05-02T03:56:14.086Z,88.50
2019-05-02T03:59:00.596Z,88.00
2019-05-02T04:01:48.384Z,87.10
2019-05-02T04:04:35.497Z,87.20
2019-05-02T04:07:23.321Z,87.10
2019-05-02T04:10:13.386Z,87.80
2019-05-02T04:13:00.427Z,88.00
2019-05-02T04:15:47.525Z,87.60
2019-05-02T04:18:34.693Z,87.40
2019-05-02T04:21:25.901Z,87.90
2019-05-02T04:24:15.764Z,88.00
2019-05-02T04:27:01.020Z,88.20
2019-05-02T04:29:48.169Z,87.60
2019-05-02T04:32:35.508Z,87.70
2019-05-02T04:35:28.736Z,87.60
2019-05-02T04:38:20.006Z,87.30
2019-05-02T04:41:00.353Z,87.20
2019-05-02T04:43:57.404Z,87.10
2019-05-02T04:46:38.807Z,87.20
2019-05-02T04:49:29.976Z,87.40
2019-05-02T04:52:17.171Z,88.20
2019-05-02T04:55:14.630Z,88.90
2019-05-02T04:57:53.208Z,88.50
2019-05-02T05:00:45.126Z,88.50
2019-05-02T05:03:29.574Z,88.10
2019-05-02T05:06:18.916Z,88.10
2019-05-02T05:09:10.397Z,88.20
2019-05-02T05:12:00.886Z,87.50
2019-05-02T05:14:44.460Z,88.20
2019-05-02T05:17:34.040Z,87.60
2019-05-02T05:20:19.345Z,87.30
2019-05-02T05:23:08.251Z,88.70
2019-05-02T05:26:03.426Z,87.70
2019-05-02T05:28:47.659Z,87.60
2019-05-02T05:31:35.131Z,87.40
2019-05-02T05:34:22.798Z,87.40
2019-05-02T05:37:13.480Z,86.90
2019-05-02T05:39:59.853Z,86.60
2019-05-02T05:42:48.109Z,86.30
2019-05-02T05:45:48.636Z,86.70
2019-05-02T05:48:24.390Z,87.80
2019-05-02T05:51:11.875Z,87.80
2019-05-02T05:54:03.002Z,87.20
2019-05-02T05:56:48.290Z,86.40
2019-05-02T05:59:37.806Z,85.60
2019-05-02T06:02:24.350Z,85.40
2019-05-02T06:05:11.758Z,84.60
2019-05-02T06:07:58.998Z,83.90
2019-05-02T06:10:46.441Z,83.50
2019-05-02T06:13:33.829Z,82.60
2019-05-02T06:16:21.220Z,81.80
2019-05-02T06:19:13.046Z,82.10
2019-05-02T06:21:57.665Z,81.80
2019-05-02T06:24:46.120Z,80.00
2019-05-02T06:27:32.794Z,80.30
2019-05-02T06:30:20.208Z,79.50
2019-05-02T06:33:07.176Z,78.80
2019-05-02T06:36:01.122Z,78.00
2019-05-02T06:38:43.057Z,77.90
2019-05-02T06:41:30.733Z,78.10
2019-05-02T06:44:18.422Z,77.00
2019-05-02T06:47:06.843Z,76.90
2019-05-02T06:49:56.145Z,76.50
2019-05-02T06:52:42.838Z,76.10
2019-05-02T06:55:36.158Z,76.30
2019-05-02T06:58:18.360Z,75.50
2019-05-02T07:01:05.858Z,75.40
2019-05-02T07:03:53.241Z,74.50
2019-05-02T07:06:56.187Z,73.60
2019-05-02T07:09:40.307Z,73.20
2019-05-02T07:12:18.497Z,73.40
2019-05-02T07:15:28.144Z,72.70
2019-05-02T07:18:25.468Z,72.20
2019-05-02T07:21:12.096Z,72.80
2019-05-02T07:23:59.720Z,70.70
2019-05-02T07:26:52.078Z,68.10
2019-05-02T07:29:36.892Z,68.00
2019-05-02T07:32:25.158Z,66.90
2019-05-02T07:35:13.044Z,67.00
2019-05-02T07:38:00.300Z,66.40
2019-05-02T07:40:48.148Z,67.30
2019-05-02T07:43:35.449Z,66.30
2019-05-02T07:46:22.662Z,65.50
2019-05-02T07:49:10.105Z,63.20
2019-05-02T07:51:58.921Z,64.00
2019-05-02T07:54:46.454Z,64.30
2019-05-02T07:57:33.820Z,61.50
2019-05-02T08:00:21.432Z,60.80
2019-05-02T08:03:08.719Z,59.40
2019-05-02T08:05:58.537Z,59.30
2019-05-02T08:08:46.169Z,59.30
2019-05-02T08:11:37.234Z,57.10
2019-05-02T08:14:22.011Z,59.00
2019-05-02T08:17:16.159Z,55.90
2019-05-02T08:19:58.408Z,53.80
2019-05-02T08:22:49.027Z,53.00
2019-05-02T08:25:34.449Z,54.30
2019-05-02T08:28:39.791Z,54.70
2019-05-02T08:31:30.044Z,54.40
2019-05-02T08:34:17.939Z,56.60
2019-05-02T08:37:05.286Z,53.70
2019-05-02T08:39:52.687Z,52.90
2019-05-02T08:42:39.862Z,53.20
2019-05-02T08:45:27.399Z,52.90
2019-05-02T08:48:14.507Z,51.50
2019-05-02T08:51:01.953Z,53.50
2019-05-02T08:53:52.119Z,51.80
2019-05-02T08:56:38.626Z,51.40
2019-05-02T08:59:26.197Z,51.00
2019-05-02T09:02:13.634Z,50.60
2019-05-02T09:05:04.647Z,49.70
2019-05-02T09:07:49.585Z,51.00
2019-05-02T09:10:41.605Z,52.40
2019-05-02T09:13:29.118Z,54.70
2019-05-02T09:16:14.673Z,52.80
2019-05-02T09:19:02.747Z,52.40
2019-05-02T09:21:52.567Z,51.70
2019-05-02T09:24:42.353Z,52.40
2019-05-02T09:27:28.099Z,50.10
2019-05-02T09:30:17.151Z,50.30
2019-05-02T09:33:06.599Z,49.10
2019-05-02T09:35:53.330Z,48.80
2019-05-02T09:38:42.352Z,47.80
2019-05-02T09:41:34.432Z,46.00
2019-05-02T09:44:18.827Z,45.40
2019-05-02T09:47:06.216Z,46.60
2019-05-02T09:50:12.830Z,48.20
2019-05-02T09:53:01.955Z,47.10
2019-05-02T09:55:53.505Z,46.00
2019-05-02T09:58:38.353Z,47.70
2019-05-02T10:01:31.706Z,45.60
2019-05-02T10:04:18.672Z,46.20
2019-05-02T10:07:06.061Z,46.10
2019-05-02T10:09:53.129Z,47.30
2019-05-02T10:12:42.590Z,47.30
2019-05-02T10:15:29.393Z,45.10
2019-05-02T10:18:19.636Z,43.40
2019-05-02T10:21:07.728Z,40.90
2019-05-02T10:23:59.413Z,42.80
2019-05-02T10:26:43.085Z,41.60
2019-05-02T10:29:32.724Z,40.50
2019-05-02T10:32:19.409Z,41.00
2019-05-02T10:35:09.093Z,43.10
2019-05-02T10:37:56.593Z,40.20
2019-05-02T10:40:43.685Z,39.50
2019-05-02T10:43:32.764Z,40.30
2019-05-02T10:46:37.875Z,36.00
2019-05-02T10:49:31.928Z,37.30
2019-05-02T10:52:21.619Z,37.80
2019-05-02T10:55:07.633Z,36.20
2019-05-02T10:57:54.969Z,36.60
2019-05-02T11:00:45.229Z,36.00
2019-05-02T11:03:32.788Z,37.50
2019-05-02T11:06:22.078Z,36.10
2019-05-02T11:09:12.096Z,35.50
2019-05-02T11:12:02.445Z,35.30
2019-05-02T11:14:51.662Z,34.50
2019-05-02T11:17:43.652Z,33.80
2019-05-02T11:20:31.870Z,33.20
2019-05-02T11:23:19.169Z,34.40
2019-05-02T11:26:06.428Z,33.80
2019-05-02T11:28:53.526Z,32.10
2019-05-02T11:31:42.772Z,32.00
2019-05-02T11:34:29.681Z,32.60
2019-05-02T11:37:16.497Z,32.40
2019-05-02T11:40:07.050Z,31.80
2019-05-02T11:42:57.263Z,31.20
2019-05-02T11:45:44.091Z,31.00
2019-05-02T11:48:32.019Z,31.90
2019-05-02T11:51:19.306Z,31.00
2019-05-02T11:54:09.351Z,30.80
2019-05-02T11:56:55.310Z,31.90
2019-05-02T11:59:42.571Z,31.70
2019-05-02T12:02:32.001Z,31.20
2019-05-02T12:05:22.205Z,31.40
2019-05-02T12:08:12.070Z,32.40
2019-05-02T12:11:01.238Z,32.20
2019-05-02T12:13:51.610Z,31.30
2019-05-02T12:16:36.095Z,30.50
2019-05-02T12:19:23.217Z,30.50
2019-05-02T12:22:12.905Z,30.00
2019-05-02T12:24:59.549Z,31.50
2019-05-02T12:27:46.569Z,30.30
2019-05-02T12:30:37.678Z,29.80
2019-05-02T12:33:24.274Z,29.80
2019-05-02T12:36:12.042Z,30.00
2019-05-02T12:38:59.476Z,29.50
2019-05-02T12:41:46.780Z,29.90
2019-05-02T12:44:33.912Z,29.70
2019-05-02T12:47:22.541Z,29.70
2019-05-02T12:50:09.627Z,28.60
2019-05-02T12:52:56.484Z,29.70
2019-05-02T12:55:43.984Z,29.40
2019-05-02T12:58:32.567Z,30.80
2019-05-02T13:01:21.655Z,29.80
2019-05-02T13:04:12.271Z,30.80
2019-05-02T13:06:58.953Z,30.80
2019-05-02T13:09:46.547Z,31.60
2019-05-02T13:12:35.511Z,33.40
2019-05-02T13:15:23.573Z,32.70
2019-05-02T13:18:12.466Z,32.90
2019-05-02T13:21:02.265Z,33.20
2019-05-02T13:23:57.019Z,31.20
2019-05-02T13:26:44.071Z,32.20
2019-05-02T13:29:32.187Z,30.00
2019-05-02T13:32:21.803Z,30.00
2019-05-02T13:35:14.567Z,30.00
2019-05-02T13:38:02.919Z,30.70
2019-05-02T13:40:51.742Z,30.10
2019-05-02T13:43:41.878Z,29.20
2019-05-02T13:46:29.550Z,28.00
2019-05-02T13:49:16.326Z,27.20
2019-05-02T13:52:03.638Z,28.00
2019-05-02T13:54:52.257Z,28.60
2019-05-02T13:57:45.343Z,28.60
2019-05-02T14:00:46.444Z,28.70
2019-05-02T14:03:33.282Z,29.50
2019-05-02T14:06:22.044Z,28.50
2019-05-02T14:09:19.845Z,29.30
2019-05-02T14:12:15.757Z,29.00
2019-05-02T14:15:03.207Z,27.80
2019-05-02T14:17:52.361Z,27.70
2019-05-02T14:20:39.205Z,26.30
2019-05-02T14:23:26.978Z,25.70
2019-05-02T14:26:27.225Z,25.20
2019-05-02T14:29:02.646Z,25.40
2019-05-02T14:31:51.800Z,25.90
2019-05-02T14:34:49.388Z,26.80
2019-05-02T14:37:36.605Z,27.60
2019-05-02T14:40:25.792Z,27.30
2019-05-02T14:43:14.643Z,27.30
2019-05-02T14:46:02.896Z,25.70
2019-05-02T14:48:52.327Z,24.10
2019-05-02T14:51:41.644Z,25.10
2019-05-02T14:54:28.541Z,25.80
2019-05-02T14:57:22.052Z,25.10
2019-05-02T15:00:09.051Z,24.50
2019-05-02T15:02:55.937Z,24.30
2019-05-02T15:05:42.767Z,24.10
2019-05-02T15:08:32.115Z,24.10
2019-05-02T15:11:18.552Z,24.60
2019-05-02T15:14:05.852Z,24.00
2019-05-02T15:16:56.609Z,23.50
2019-05-02T15:19:42.744Z,23.70
2019-05-02T15:22:33.139Z,23.00
2019-05-02T15:25:18.672Z,23.20
2019-05-02T15:28:07.697Z,23.90
2019-05-02T15:31:08.724Z,23.00
2019-05-02T15:34:06.474Z,23.90
2019-05-02T15:36:53.936Z,24.70
2019-05-02T15:42:29.817Z,24.10
2019-05-02T15:45:17.222Z,24.70
2019-05-02T15:48:04.816Z,24.30
2019-05-02T15:50:55.345Z,24.50
2019-05-02T15:54:05.331Z,25.30
2019-05-02T15:57:00.164Z,26.00
2019-05-02T15:59:44.780Z,27.00
2019-05-02T16:02:32.082Z,26.80
2019-05-02T16:05:21.664Z,26.90
2019-05-02T16:08:09.106Z,28.00
2019-05-02T16:10:56.297Z,28.90
2019-05-02T16:13:46.986Z,28.20
2019-05-02T16:16:36.558Z,28.80
2019-05-02T16:19:28.825Z,27.90
2019-05-02T16:22:18.614Z,27.80
2019-05-02T16:25:07.251Z,28.20
2019-05-02T16:27:57.417Z,28.70
2019-05-02T16:30:47.635Z,28.50
2019-05-02T16:33:33.511Z,29.10
2019-05-02T16:36:26.038Z,28.60
2019-05-02T16:39:11.211Z,29.20
2019-05-02T16:41:58.859Z,28.90
2019-05-02T16:44:45.838Z,29.50
2019-05-02T16:47:33.187Z,28.50
2019-05-02T16:50:22.719Z,28.00
2019-05-02T16:53:09.397Z,28.80
2019-05-02T16:55:58.277Z,29.50
2019-05-02T16:58:47.059Z,29.20
2019-05-02T17:01:34.445Z,29.00
2019-05-02T17:04:22.352Z,29.20
2019-05-02T17:07:11.658Z,29.10
2019-05-02T17:10:03.137Z,28.90
2019-05-02T17:12:56.603Z,28.90
2019-05-02T17:15:42.794Z,29.30
2019-05-02T17:18:30.278Z,29.60
2019-05-02T17:21:17.150Z,29.60
2019-05-02T17:24:04.733Z,29.20
2019-05-02T17:26:51.964Z,28.60
2019-05-02T17:29:40.995Z,29.20
2019-05-02T17:32:28.829Z,29.00
2019-05-02T17:35:16.378Z,29.10
2019-05-02T17:38:06.078Z,29.70
2019-05-02T17:41:04.714Z,30.00
2019-05-02T17:43:49.041Z,29.90
2019-05-02T17:46:36.736Z,30.00
2019-05-02T17:49:34.900Z,29.90
2019-05-02T17:52:26.792Z,30.10
2019-05-02T17:55:12.084Z,29.60
2019-05-02T17:57:59.292Z,30.00
2019-05-02T18:00:54.537Z,30.00
2019-05-02T18:03:36.567Z,29.70
2019-05-02T18:06:32.463Z,30.60
2019-05-02T18:09:15.476Z,30.70
2019-05-02T18:12:01.615Z,30.80
2019-05-02T18:14:53.126Z,31.20
2019-05-02T18:17:37.536Z,31.40
2019-05-02T18:20:28.557Z,31.20
2019-05-02T18:23:18.782Z,31.60
2019-05-02T18:26:06.416Z,32.20
2019-05-02T18:28:57.219Z,32.40
2019-05-02T18:31:47.281Z,32.70
2019-05-02T18:34:32.032Z,32.90
2019-05-02T18:37:19.166Z,33.20
2019-05-02T18:40:07.324Z,33.40
2019-05-02T18:42:56.615Z,33.50
2019-05-02T18:45:43.036Z,34.10
2019-05-02T18:48:31.883Z,34.30
2019-05-02T18:51:19.262Z,35.00
2019-05-02T18:54:07.671Z,35.10
2019-05-02T18:56:55.597Z,35.00
2019-05-02T18:59:42.838Z,35.80
2019-05-02T19:02:32.775Z,36.20
2019-05-02T19:05:21.145Z,36.50
2019-05-02T19:08:08.728Z,37.10
2019-05-02T19:11:05.919Z,37.40
2019-05-02T19:13:48.017Z,37.50
2019-05-02T19:16:38.063Z,39.30
2019-05-02T19:19:27.401Z,43.80
2019-05-02T19:22:17.529Z,50.50
2019-05-02T19:25:06.318Z,54.40
2019-05-02T19:28:04.028Z,56.40
2019-05-02T19:30:51.990Z,57.80
2019-05-02T19:33:42.727Z,58.20
2019-05-02T19:36:29.372Z,58.70
2019-05-02T19:39:16.996Z,59.40
2019-05-02T19:42:04.307Z,59.70
2019-05-02T19:44:52.790Z,60.30
2019-05-02T19:47:56.473Z,60.50
2019-05-02T19:50:44.060Z,61.20
2019-05-02T19:53:33.893Z,61.70
2019-05-02T19:56:21.959Z,61.60
2019-05-02T19:59:09.697Z,60.60
2019-05-02T20:02:02.521Z,60.00
2019-05-02T20:04:47.649Z,60.50
2019-05-02T20:07:34.759Z,61.40
2019-05-02T20:10:22.751Z,62.20
2019-05-02T20:13:11.989Z,61.60
2019-05-02T20:16:05.784Z,61.90
2019-05-02T20:18:53.012Z,62.20
2019-05-02T20:21:57.189Z,61.50
2019-05-02T20:24:58.318Z,61.80
2019-05-02T20:27:42.439Z,62.00
2019-05-02T20:30:29.697Z,62.90
2019-05-02T20:33:18.785Z,63.40
2019-05-02T20:36:08.124Z,64.20
2019-05-02T20:39:02.305Z,64.60
2019-05-02T20:41:50.353Z,64.40
2019-05-02T20:44:37.530Z,64.20
2019-05-02T20:47:26.553Z,63.70
2019-05-02T20:50:15.930Z,64.70
2019-05-02T20:53:03.973Z,64.70
2019-05-02T20:55:52.394Z,65.00
2019-05-02T20:58:41.824Z,64.70
2019-05-02T21:01:29.390Z,64.10
2019-05-02T21:04:16.941Z,63.90
2019-05-02T21:07:07.080Z,64.00
2019-05-02T21:10:12.540Z,64.50
2019-05-02T21:13:01.957Z,65.10
2019-05-02T21:15:48.681Z,67.70
2019-05-02T21:18:35.931Z,67.30
2019-05-02T21:21:25.189Z,68.40
2019-05-02T21:24:12.500Z,68.80
2019-05-02T21:27:04.348Z,68.90
2019-05-02T21:29:53.805Z,69.70
2019-05-02T21:32:42.635Z,70.60
2019-05-02T21:35:34.304Z,71.30
2019-05-02T21:38:22.585Z,70.80
2019-05-02T21:41:11.430Z,70.50
2019-05-02T21:43:58.963Z,68.40
2019-05-02T21:46:49.107Z,67.30
2019-05-02T21:49:45.402Z,66.00
2019-05-02T21:52:42.285Z,65.60
2019-05-02T21:55:32.338Z,64.00
2019-05-02T21:58:21.536Z,63.00
2019-05-02T22:01:12.749Z,63.20
2019-05-02T22:03:59.684Z,65.40
2019-05-02T22:06:47.058Z,66.40
2019-05-02T22:09:34.421Z,68.00
2019-05-02T22:12:22.567Z,68.00
2019-05-02T22:15:12.766Z,68.10
2019-05-02T22:18:01.620Z,66.80
2019-05-02T22:20:48.881Z,65.70
2019-05-02T22:23:36.246Z,66.60
2019-05-02T22:26:23.632Z,65.40
2019-05-02T22:29:12.318Z,65.00
2019-05-02T22:32:00.037Z,63.90
2019-05-02T22:34:46.917Z,63.90
2019-05-02T22:37:34.126Z,62.10
2019-05-02T22:40:21.818Z,62.40
2019-05-02T22:43:08.790Z,62.80
2019-05-02T22:45:55.948Z,63.30
2019-05-02T22:48:42.330Z,63.30
2019-05-02T22:51:29.393Z,62.70
2019-05-02T22:54:26.806Z,63.70
2019-05-02T22:57:04.418Z,65.00
2019-05-02T22:59:52.167Z,65.60
2019-05-02T23:02:39.410Z,65.20
2019-05-02T23:05:26.995Z,65.40
2019-05-02T23:08:14.397Z,66.10
2019-05-02T23:11:03.408Z,67.30
2019-05-02T23:13:51.776Z,67.80
2019-05-02T23:16:39.306Z,69.10
2019-05-02T23:19:26.606Z,69.20
2019-05-02T23:22:12.889Z,68.90
2019-05-02T23:25:04.209Z,68.90
2019-05-02T23:27:53.286Z,69.20
2019-05-02T23:30:42.340Z,69.00
2019-05-02T23:33:51.470Z,69.30
2019-05-02T23:36:41.626Z,68.90
2019-05-02T23:39:29.038Z,69.30
2019-05-02T23:42:16.403Z,69.10
2019-05-02T23:45:02.873Z,69.30
2019-05-02T23:47:52.408Z,68.70
2019-05-02T23:50:39.524Z,68.80
2019-05-02T23:53:31.575Z,68.60
2019-05-02T23:56:18.455Z,68.80
2019-05-02T23:59:04.568Z,68.80
